createdAt,value
2023-03-21T00:00:10.415Z,172.71
2023-03-21T00:01:09.355Z,172.88
2023-03-21T00:02:09.378Z,172.65
2023-03-21T00:03:09.282Z,172.16
2023-03-21T00:04:09.287Z,173.34
2023-03-21T00:05:15.449Z,172.53
2023-03-21T00:06:10.085Z,172.62
2023-03-21T00:07:09.030Z,172.67
2023-03-21T00:08:08.978Z,172.54
2023-03-21T00:09:08.916Z,170.48
2023-03-21T00:10:16.535Z,172.05
2023-03-21T00:11:09.813Z,172.60
2023-03-21T00:12:08.744Z,172.78
2023-03-21T00:13:08.680Z,172.96
2023-03-21T00:14:08.663Z,171.59
2023-03-21T00:15:08.572Z,172.27
2023-03-21T00:16:22.983Z,170.74
2023-03-21T00:17:08.463Z,170.88
2023-03-21T00:18:08.407Z,171.33
2023-03-21T00:19:08.340Z,171.11
2023-03-21T00:20:08.300Z,171.86
2023-03-21T00:21:38.417Z,171.30
2023-03-21T00:22:09.370Z,170.84
2023-03-21T00:23:08.111Z,170.90
2023-03-21T00:24:08.119Z,170.90
2023-03-21T00:25:08.010Z,170.07
2023-03-21T00:26:07.945Z,170.83
2023-03-21T00:27:39.455Z,170.97
2023-03-21T00:28:08.950Z,170.89
2023-03-21T00:29:07.786Z,171.04
2023-03-21T00:30:07.719Z,170.88
2023-03-21T00:31:07.680Z,170.88
2023-03-21T00:32:07.602Z,170.55
2023-03-21T00:34:08.494Z,169.79
2023-03-21T00:35:38.329Z,169.94
2023-03-21T00:36:08.892Z,169.82
2023-03-21T00:37:07.331Z,170.08
2023-03-21T00:38:07.269Z,169.84
2023-03-21T00:39:07.225Z,170.13
2023-03-21T00:40:10.712Z,169.90
2023-03-21T00:41:19.338Z,169.78
2023-03-21T00:42:08.051Z,169.86
2023-03-21T00:43:07.012Z,170.27
2023-03-21T00:44:06.923Z,170.58
2023-03-21T00:45:06.899Z,170.72
2023-03-21T00:46:06.829Z,170.55
2023-03-21T00:47:08.124Z,170.16
2023-03-21T00:48:06.765Z,169.01
2023-03-21T00:49:06.661Z,169.24
2023-03-21T00:50:06.629Z,170.31
2023-03-21T00:51:06.592Z,169.93
2023-03-21T00:52:15.144Z,168.79
2023-03-21T00:53:07.451Z,168.89
2023-03-21T00:54:06.417Z,169.14
2023-03-21T00:55:06.348Z,167.00
2023-03-21T00:56:06.280Z,167.02
2023-03-21T00:57:06.234Z,169.08
2023-03-21T00:58:06.197Z,168.37
2023-03-21T00:59:06.123Z,166.51
2023-03-21T01:00:06.066Z,168.35
2023-03-21T01:01:06.053Z,166.94
2023-03-21T01:02:06.009Z,167.93
2023-03-21T01:03:21.309Z,166.80
2023-03-21T01:04:06.853Z,166.94
2023-03-21T01:05:05.815Z,166.96
2023-03-21T01:06:06.062Z,166.99
2023-03-21T01:07:05.709Z,165.44
2023-03-21T01:08:17.436Z,166.63
2023-03-21T01:09:06.615Z,166.92
2023-03-21T01:10:05.536Z,167.16
2023-03-21T01:11:05.502Z,167.00
2023-03-21T01:12:05.429Z,167.43
2023-03-21T01:13:05.385Z,165.46
2023-03-21T01:14:20.893Z,166.98
2023-03-21T01:15:06.268Z,167.07
2023-03-21T01:16:05.262Z,167.16
2023-03-21T01:17:05.153Z,167.38
2023-03-21T01:18:05.096Z,166.81
2023-03-21T01:19:07.171Z,166.78
2023-03-21T01:20:04.976Z,167.07
2023-03-21T01:21:04.919Z,167.01
2023-03-21T01:22:04.883Z,167.00
2023-03-21T01:23:04.823Z,163.72
2023-03-21T01:24:04.781Z,164.37
2023-03-21T01:25:21.278Z,163.49
2023-03-21T01:26:04.651Z,163.66
2023-03-21T01:27:04.602Z,164.31
2023-03-21T01:28:04.538Z,164.75
2023-03-21T01:29:04.468Z,166.08
2023-03-21T01:30:11.144Z,165.42
2023-03-21T01:31:05.478Z,163.68
2023-03-21T01:32:04.302Z,163.88
2023-03-21T01:33:04.224Z,164.36
2023-03-21T01:34:04.164Z,162.78
2023-03-21T01:35:04.117Z,164.06
2023-03-21T01:36:12.849Z,161.33
2023-03-21T01:37:05.067Z,161.60
2023-03-21T01:38:03.935Z,161.71
2023-03-21T01:39:03.888Z,162.33
2023-03-21T01:40:03.826Z,161.88
2023-03-21T01:41:08.593Z,162.91
2023-03-21T01:42:04.726Z,161.58
2023-03-21T01:43:03.653Z,161.65
2023-03-21T01:44:03.616Z,162.81
2023-03-21T01:45:03.549Z,162.50
2023-03-21T01:46:03.591Z,162.53
2023-03-21T01:47:11.159Z,164.05
2023-03-21T01:48:04.411Z,164.16
2023-03-21T01:49:03.345Z,163.89
2023-03-21T01:50:03.278Z,164.17
2023-03-21T01:51:03.238Z,164.14
2023-03-21T01:52:11.530Z,162.66
2023-03-21T01:53:04.141Z,164.25
2023-03-21T01:54:03.075Z,164.38
2023-03-21T01:55:03.010Z,164.99
2023-03-21T01:56:02.950Z,162.14
2023-03-21T01:57:02.916Z,161.85
2023-03-21T01:58:06.455Z,160.69
2023-03-21T01:59:02.796Z,160.91
2023-03-21T02:00:02.762Z,161.23
2023-03-21T02:01:02.889Z,161.25
2023-03-21T02:02:02.640Z,160.59
2023-03-21T02:03:13.683Z,159.70
2023-03-21T02:04:03.610Z,160.91
2023-03-21T02:05:02.483Z,160.95
2023-03-21T02:06:02.462Z,159.62
2023-03-21T02:07:02.376Z,161.53
2023-03-21T02:08:02.331Z,160.17
2023-03-21T02:09:02.287Z,158.87
2023-03-21T02:10:02.226Z,160.53
2023-03-21T02:11:02.177Z,159.28
2023-03-21T02:12:02.119Z,161.05
2023-03-21T02:13:02.089Z,160.83
2023-03-21T02:14:06.673Z,158.86
2023-03-21T02:15:02.981Z,159.08
2023-03-21T02:16:01.919Z,159.10
2023-03-21T02:17:01.934Z,159.57
2023-03-21T02:18:01.820Z,159.85
2023-03-21T02:19:01.780Z,159.42
2023-03-21T02:20:01.720Z,159.50
2023-03-21T02:21:01.661Z,159.53
2023-03-21T02:22:01.609Z,159.56
2023-03-21T02:23:01.560Z,158.87
2023-03-21T02:24:01.515Z,157.95
2023-03-21T02:25:06.145Z,159.73
2023-03-21T02:26:02.428Z,159.84
2023-03-21T02:27:04.252Z,159.93
2023-03-21T02:28:01.317Z,160.08
2023-03-21T02:29:01.271Z,159.95
2023-03-21T02:30:01.246Z,159.67
2023-03-21T02:31:01.244Z,159.49
2023-03-21T02:32:16.248Z,158.92
2023-03-21T02:33:02.101Z,159.17
2023-03-21T02:34:01.031Z,159.48
2023-03-21T02:35:00.987Z,159.26
2023-03-21T02:36:11.999Z,159.47
2023-03-21T02:37:01.893Z,159.06
2023-03-21T02:38:01.183Z,159.31
2023-03-21T02:39:00.797Z,159.08
2023-03-21T02:40:00.738Z,159.48
2023-03-21T02:41:03.417Z,158.26
2023-03-21T02:42:00.637Z,159.80
2023-03-21T02:43:01.483Z,158.33
2023-03-21T02:44:00.516Z,155.01
2023-03-21T02:45:00.459Z,149.37
2023-03-21T02:46:00.452Z,142.82
2023-03-21T02:47:06.115Z,141.03
2023-03-21T02:48:01.365Z,139.53
2023-03-21T02:49:00.316Z,135.00
2023-03-21T02:50:00.233Z,128.00
2023-03-21T02:51:00.184Z,124.14
2023-03-21T02:52:05.463Z,119.71
2023-03-21T02:53:01.102Z,118.29
2023-03-21T02:54:26.112Z,115.90
2023-03-21T02:55:01.039Z,116.60
2023-03-21T02:55:59.982Z,111.21
2023-03-21T02:56:59.937Z,107.47
2023-03-21T02:58:11.649Z,104.65
2023-03-21T02:59:00.907Z,102.63
2023-03-21T03:00:07.464Z,99.83
2023-03-21T03:01:00.804Z,100.35
2023-03-21T03:01:59.760Z,96.24
2023-03-21T03:03:09.685Z,93.94
2023-03-21T03:04:00.728Z,93.86
2023-03-21T03:04:59.676Z,90.19
2023-03-21T03:05:59.637Z,87.02
2023-03-21T03:06:59.613Z,83.84
2023-03-21T03:07:59.579Z,80.33
2023-03-21T03:09:02.671Z,79.34
2023-03-21T03:09:59.533Z,79.22
2023-03-21T03:10:59.502Z,77.27
2023-03-21T03:11:59.471Z,74.11
2023-03-21T03:12:59.442Z,73.60
2023-03-21T03:13:59.426Z,70.18
2023-03-21T03:15:03.478Z,66.91
2023-03-21T03:15:59.413Z,67.00
2023-03-21T03:16:59.336Z,65.34
2023-03-21T03:17:59.284Z,62.40
2023-03-21T03:18:59.265Z,62.38
2023-03-21T03:20:04.268Z,61.56
2023-03-21T03:21:00.186Z,61.25
2023-03-21T03:21:59.167Z,60.83
2023-03-21T03:22:59.127Z,57.14
2023-03-21T03:23:59.119Z,57.87
2023-03-21T03:25:02.815Z,58.02
2023-03-21T03:25:59.048Z,57.81
2023-03-21T03:26:59.029Z,55.15
2023-03-21T03:27:58.993Z,54.54
2023-03-21T03:28:58.980Z,53.99
2023-03-21T03:29:58.938Z,53.40
2023-03-21T03:31:08.637Z,50.57
2023-03-21T03:31:59.932Z,50.61
2023-03-21T03:32:58.860Z,50.68
2023-03-21T03:33:58.849Z,49.46
2023-03-21T03:34:58.807Z,47.32
2023-03-21T03:36:05.450Z,47.72
2023-03-21T03:36:59.762Z,50.57
2023-03-21T03:37:58.747Z,48.32
2023-03-21T03:38:58.709Z,50.74
2023-03-21T03:39:58.694Z,49.24
2023-03-21T03:40:58.650Z,48.98
2023-03-21T03:42:18.338Z,49.66
2023-03-21T03:42:59.604Z,49.81
2023-03-21T03:43:58.604Z,50.11
2023-03-21T03:44:58.568Z,50.23
2023-03-21T03:45:58.519Z,49.22
2023-03-21T03:46:58.497Z,47.66
2023-03-21T03:47:58.497Z,48.82
2023-03-21T03:48:58.495Z,47.24
2023-03-21T03:49:58.411Z,46.10
2023-03-21T03:50:58.385Z,46.49
2023-03-21T03:51:58.366Z,43.01
2023-03-21T03:52:59.887Z,42.40
2023-03-21T03:53:58.318Z,40.83
2023-03-21T03:54:58.311Z,39.36
2023-03-21T03:55:58.280Z,40.90
2023-03-21T03:56:58.259Z,39.92
2023-03-21T03:57:58.234Z,40.07
2023-03-21T03:58:58.216Z,40.21
2023-03-21T03:59:58.205Z,40.12
2023-03-21T04:00:58.160Z,40.79
2023-03-21T04:01:58.194Z,41.36
2023-03-21T04:02:58.181Z,41.26
2023-03-21T04:04:11.909Z,40.94
2023-03-21T04:04:59.076Z,41.02
2023-03-21T04:05:58.037Z,41.32
2023-03-21T04:06:58.238Z,41.34
2023-03-21T04:07:57.989Z,42.36
2023-03-21T04:08:58.898Z,42.85
2023-03-21T04:09:57.945Z,43.66
2023-03-21T04:10:57.935Z,44.66
2023-03-21T04:11:57.891Z,45.50
2023-03-21T04:12:57.883Z,44.63
2023-03-21T04:13:57.865Z,43.50
2023-03-21T04:15:09.504Z,44.27
2023-03-21T04:15:57.856Z,44.35
2023-03-21T04:16:57.783Z,43.79
2023-03-21T04:17:57.759Z,43.03
2023-03-21T04:18:57.735Z,40.92
2023-03-21T04:20:08.802Z,38.40
2023-03-21T04:20:58.709Z,41.20
2023-03-21T04:21:57.678Z,39.22
2023-03-21T04:22:57.658Z,38.29
2023-03-21T04:23:57.647Z,39.03
2023-03-21T04:24:58.862Z,39.45
2023-03-21T04:25:57.757Z,40.60
2023-03-21T04:26:57.737Z,40.66
2023-03-21T04:27:57.739Z,41.16
2023-03-21T04:28:57.709Z,41.14
2023-03-21T04:29:57.685Z,42.04
2023-03-21T04:31:03.525Z,42.80
2023-03-21T04:31:58.692Z,42.90
2023-03-21T04:32:57.648Z,43.04
2023-03-21T04:33:57.613Z,43.83
2023-03-21T04:34:57.612Z,44.46
2023-03-21T04:35:57.609Z,45.72
2023-03-21T04:36:57.569Z,46.52
2023-03-21T04:37:57.563Z,46.62
2023-03-21T04:38:57.545Z,46.87
2023-03-21T04:39:57.516Z,47.37
2023-03-21T04:40:57.493Z,47.15
2023-03-21T04:41:57.472Z,47.49
2023-03-21T04:42:57.454Z,47.74
2023-03-21T04:43:57.437Z,46.78
2023-03-21T04:44:57.410Z,46.86
2023-03-21T04:45:57.501Z,46.91
2023-03-21T04:46:57.379Z,46.95
2023-03-21T04:47:57.432Z,46.05
2023-03-21T04:48:57.368Z,46.85
2023-03-21T04:49:57.378Z,46.53
2023-03-21T04:50:57.320Z,45.83
2023-03-21T04:51:57.312Z,44.89
2023-03-21T04:52:57.301Z,45.65
2023-03-21T04:53:57.270Z,45.27
2023-03-21T04:54:57.293Z,44.80
2023-03-21T04:55:57.244Z,45.66
2023-03-21T04:56:57.206Z,46.18
2023-03-21T04:57:57.198Z,46.17
2023-03-21T04:58:57.166Z,47.55
2023-03-21T04:59:57.152Z,47.88
2023-03-21T05:00:57.164Z,46.88
2023-03-21T05:01:57.112Z,48.85
2023-03-21T05:02:57.099Z,48.20
2023-03-21T05:03:57.123Z,48.22
2023-03-21T05:04:57.060Z,48.41
2023-03-21T05:05:57.053Z,48.51
2023-03-21T05:06:57.029Z,48.58
2023-03-21T05:07:56.999Z,48.64
2023-03-21T05:08:56.979Z,47.29
2023-03-21T05:09:56.972Z,46.32
2023-03-21T05:10:56.961Z,45.94
2023-03-21T05:11:56.954Z,44.57
2023-03-21T05:12:56.927Z,43.32
2023-03-21T05:13:56.903Z,41.58
2023-03-21T05:14:56.915Z,40.06
2023-03-21T05:15:56.972Z,39.02
2023-03-21T05:16:56.882Z,37.54
2023-03-21T05:17:56.850Z,37.02
2023-03-21T05:18:56.837Z,35.79
2023-03-21T05:19:56.820Z,35.27
2023-03-21T05:20:56.821Z,33.82
2023-03-21T05:21:56.805Z,33.18
2023-03-21T05:22:56.778Z,31.75
2023-03-21T05:23:56.764Z,31.59
2023-03-21T05:24:56.790Z,31.65
2023-03-21T05:25:56.757Z,31.51
2023-03-21T05:26:56.745Z,28.71
2023-03-21T05:27:56.743Z,27.95
2023-03-21T05:28:56.725Z,27.42
2023-03-21T05:29:56.698Z,26.62
2023-03-21T05:30:56.724Z,25.81
2023-03-21T05:31:56.673Z,26.89
2023-03-21T05:32:56.664Z,26.21
2023-03-21T05:33:56.657Z,26.34
2023-03-21T05:34:56.626Z,26.75
2023-03-21T05:35:56.674Z,26.37
2023-03-21T05:36:56.609Z,26.37
2023-03-21T05:37:56.604Z,28.38
2023-03-21T05:38:56.586Z,29.55
2023-03-21T05:39:56.555Z,29.72
2023-03-21T05:40:56.540Z,30.29
2023-03-21T05:41:56.534Z,31.40
2023-03-21T05:42:56.519Z,33.63
2023-03-21T05:43:56.492Z,33.98
2023-03-21T05:44:56.489Z,34.72
2023-03-21T05:45:56.510Z,36.90
2023-03-21T05:46:56.453Z,37.80
2023-03-21T05:47:56.490Z,38.96
2023-03-21T05:48:56.434Z,39.09
2023-03-21T05:49:56.436Z,39.63
2023-03-21T05:50:56.404Z,40.60
2023-03-21T05:51:56.384Z,41.70
2023-03-21T05:52:56.367Z,44.97
2023-03-21T05:53:56.369Z,45.20
2023-03-21T05:54:56.355Z,46.07
2023-03-21T05:55:56.350Z,45.72
2023-03-21T05:56:56.342Z,45.74
2023-03-21T05:57:56.330Z,45.69
2023-03-21T05:58:56.309Z,45.47
2023-03-21T05:59:56.291Z,46.59
2023-03-21T06:00:56.292Z,45.89
2023-03-21T06:01:56.268Z,45.50
2023-03-21T06:02:56.287Z,45.14
2023-03-21T06:03:56.268Z,43.84
2023-03-21T06:04:56.210Z,44.44
2023-03-21T06:05:56.212Z,43.58
2023-03-21T06:06:56.199Z,46.02
2023-03-21T06:07:56.167Z,46.00
2023-03-21T06:08:56.176Z,45.62
2023-03-21T06:09:56.143Z,45.61
2023-03-21T06:10:56.127Z,45.95
2023-03-21T06:11:56.125Z,46.03
2023-03-21T06:12:56.098Z,46.36
2023-03-21T06:13:56.094Z,46.10
2023-03-21T06:14:56.083Z,46.85
2023-03-21T06:15:56.097Z,47.60
2023-03-21T06:16:56.073Z,46.09
2023-03-21T06:17:56.050Z,46.57
2023-03-21T06:18:56.045Z,46.28
2023-03-21T06:19:56.018Z,45.06
2023-03-21T06:20:56.001Z,45.17
2023-03-21T06:21:55.987Z,45.39
2023-03-21T06:22:55.977Z,45.46
2023-03-21T06:23:55.956Z,45.71
2023-03-21T09:44:46.896Z,91.95
2023-03-21T09:45:46.840Z,92.04
2023-03-21T09:46:46.824Z,91.89
2023-03-21T09:47:46.716Z,88.68
2023-03-21T09:48:56.749Z,86.28
2023-03-21T09:50:46.511Z,86.77
2023-03-21T09:51:46.433Z,80.86
2023-03-21T09:52:46.373Z,80.84
2023-03-21T09:53:46.320Z,79.75
2023-03-21T09:54:46.262Z,81.55
2023-03-21T09:55:46.247Z,79.03
2023-03-21T09:56:46.140Z,75.56
2023-03-21T09:57:46.084Z,81.15
2023-03-21T09:58:46.040Z,85.00
2023-03-21T09:59:45.989Z,88.10
2023-03-21T10:00:46.051Z,92.38
2023-03-21T12:01:38.368Z,194.53
2023-03-21T12:02:38.431Z,189.54
2023-03-21T12:03:47.247Z,182.05
2023-03-21T12:05:38.486Z,180.25
2023-03-21T12:06:38.065Z,181.11
2023-03-21T12:07:37.996Z,197.06
2023-03-21T12:08:37.953Z,200.54
2023-03-21T12:09:37.877Z,208.12
2023-03-21T12:10:37.796Z,210.94
2023-03-21T12:11:37.789Z,217.25
2023-03-21T12:12:39.482Z,217.31
2023-03-21T12:13:37.617Z,209.03
2023-03-21T12:14:37.537Z,203.54
2023-03-21T12:15:37.751Z,188.83
2023-03-21T12:16:37.448Z,179.85
2023-03-21T12:17:37.360Z,175.01
2023-03-21T12:18:37.275Z,161.06
2023-03-21T12:19:37.227Z,151.04
2023-03-21T12:20:37.141Z,134.36
2023-03-21T12:21:37.139Z,122.71
2023-03-21T12:22:37.006Z,109.12
2023-03-21T12:23:36.994Z,102.89
2023-03-21T12:24:36.978Z,84.27
2023-03-21T12:25:37.087Z,91.86
2023-03-21T12:26:36.771Z,98.48
2023-03-21T12:27:36.769Z,113.31
2023-03-21T12:28:36.624Z,119.18
2023-03-21T12:29:36.592Z,134.29
2023-03-21T12:30:36.517Z,158.20
2023-03-21T12:31:36.458Z,162.86
2023-03-21T12:32:36.355Z,170.42
2023-03-21T12:33:36.298Z,185.97
2023-03-21T12:34:36.227Z,189.61
2023-03-21T12:35:36.424Z,190.65
2023-03-21T12:36:36.120Z,198.62
2023-03-21T12:37:36.047Z,196.78
2023-03-21T12:38:35.978Z,196.90
2023-03-21T12:40:35.946Z,190.71
2023-03-21T14:10:30.402Z,169.52
2023-03-21T14:11:30.329Z,172.33
2023-03-21T14:13:33.075Z,171.91
2023-03-21T14:14:30.136Z,172.02
2023-03-21T14:15:30.076Z,172.34
2023-03-21T14:16:30.106Z,173.41
2023-03-21T14:17:29.988Z,173.24
2023-03-21T14:18:48.092Z,174.94
2023-03-21T14:19:30.842Z,172.19
2023-03-21T14:20:29.765Z,172.88
2023-03-21T14:21:29.846Z,174.25
2023-03-21T14:22:29.649Z,175.02
2023-03-21T14:23:29.588Z,180.83
2023-03-21T14:24:29.523Z,180.44
2023-03-21T14:25:34.042Z,179.93
2023-03-21T14:26:30.429Z,180.00
2023-03-21T14:27:29.335Z,180.04
2023-03-21T14:28:29.273Z,179.95
2023-03-21T14:29:31.517Z,180.66
2023-03-21T14:30:29.257Z,179.50
2023-03-21T14:31:29.223Z,182.07
2023-03-21T14:32:29.237Z,180.53
2023-03-21T14:33:29.107Z,180.43
2023-03-21T14:34:29.048Z,180.27
2023-03-21T14:35:28.979Z,179.60
2023-03-21T14:36:28.903Z,181.53
2023-03-21T14:37:28.827Z,181.38
2023-03-21T14:38:28.783Z,180.41
2023-03-21T14:39:28.726Z,181.58
2023-03-21T14:40:28.633Z,181.58
2023-03-21T14:41:28.577Z,180.48
2023-03-21T14:42:28.517Z,179.13
2023-03-21T14:43:28.454Z,181.41
2023-03-21T14:44:28.390Z,178.62
2023-03-21T14:45:28.333Z,183.21
2023-03-21T14:46:28.306Z,182.34
2023-03-21T14:47:28.249Z,183.79
2023-03-21T14:48:28.209Z,182.69
2023-03-21T14:49:28.055Z,181.65
2023-03-21T14:50:27.990Z,181.20
2023-03-21T14:51:27.927Z,180.12
2023-03-21T14:52:27.861Z,180.30
2023-03-21T14:53:27.804Z,180.96
2023-03-21T14:54:27.731Z,181.91
2023-03-21T14:55:27.686Z,183.00
2023-03-21T14:56:27.612Z,182.63
2023-03-21T14:57:27.589Z,183.63
2023-03-21T14:58:27.495Z,183.73
2023-03-21T14:59:27.426Z,185.92
2023-03-21T15:00:27.395Z,181.92
2023-03-21T15:01:27.335Z,184.60
2023-03-21T15:02:27.277Z,183.91
2023-03-21T15:03:27.198Z,182.98
2023-03-21T15:04:27.209Z,183.73
2023-03-21T15:05:27.123Z,183.50
2023-03-21T15:06:26.998Z,185.29
2023-03-21T15:07:26.953Z,184.16
2023-03-21T15:08:26.916Z,183.42
2023-03-21T15:09:26.839Z,185.07
2023-03-21T15:10:26.779Z,183.76
2023-03-21T15:11:26.698Z,183.64
2023-03-21T15:12:26.658Z,184.70
2023-03-21T15:13:26.607Z,183.67
2023-03-21T15:14:26.532Z,184.70
2023-03-21T15:15:27.603Z,182.23
2023-03-21T15:16:26.411Z,181.60
2023-03-21T15:17:26.317Z,182.74
2023-03-21T15:18:26.286Z,184.27
2023-03-21T15:19:26.197Z,183.27
2023-03-21T15:20:26.234Z,184.28
2023-03-21T15:21:26.094Z,184.24
2023-03-21T15:22:26.000Z,182.68
2023-03-21T15:23:25.942Z,184.51
2023-03-21T15:24:25.884Z,183.70
2023-03-21T15:25:25.817Z,183.37
2023-03-21T15:26:25.753Z,182.25
2023-03-21T15:27:25.715Z,182.41
2023-03-21T15:28:25.629Z,182.84
2023-03-21T15:29:25.566Z,183.49
2023-03-21T15:30:25.508Z,185.46
2023-03-21T15:31:25.457Z,184.54
2023-03-21T15:32:25.380Z,185.55
2023-03-21T15:33:25.319Z,183.93
2023-03-21T15:34:25.261Z,182.06
2023-03-21T15:35:25.198Z,183.23
2023-03-21T15:36:25.261Z,184.61
2023-03-21T15:37:25.082Z,182.10
2023-03-21T15:38:25.084Z,183.96
2023-03-21T15:39:24.947Z,184.41
2023-03-21T15:40:24.888Z,184.54
2023-03-21T15:41:24.840Z,184.73
2023-03-21T15:42:24.763Z,185.06
2023-03-21T15:43:24.709Z,184.58
2023-03-21T15:44:24.656Z,184.66
2023-03-21T15:45:24.614Z,183.47
2023-03-21T15:46:24.567Z,183.96
2023-03-21T15:47:24.504Z,184.05
2023-03-21T15:48:24.509Z,184.77
2023-03-21T15:49:24.363Z,184.76
2023-03-21T15:50:24.310Z,182.65
2023-03-21T15:51:24.239Z,184.88
2023-03-21T15:52:24.263Z,184.70
2023-03-21T15:53:24.119Z,184.08
2023-03-21T15:54:24.062Z,183.41
2023-03-21T15:55:24.004Z,181.97
2023-03-21T15:56:23.953Z,182.20
2023-03-21T15:57:23.907Z,182.38
2023-03-21T15:58:23.818Z,183.73
2023-03-21T15:59:23.777Z,183.46
2023-03-21T16:00:23.713Z,184.83
2023-03-21T16:01:23.690Z,186.88
2023-03-21T16:02:23.676Z,184.22
2023-03-21T16:03:23.605Z,183.57
2023-03-21T16:04:23.477Z,184.92
2023-03-21T16:05:23.411Z,183.27
2023-03-21T16:06:23.346Z,179.30
2023-03-21T16:07:23.285Z,181.29
2023-03-21T16:08:23.212Z,184.74
2023-03-21T16:09:23.161Z,181.98
2023-03-21T16:10:23.097Z,183.20
2023-03-21T16:11:23.045Z,182.79
2023-03-21T16:12:22.974Z,183.95
2023-03-21T16:13:22.942Z,181.37
2023-03-21T16:14:22.883Z,182.38
2023-03-21T16:15:22.820Z,182.31
2023-03-21T16:16:22.830Z,182.30
2023-03-21T16:17:22.698Z,183.49
2023-03-21T16:18:22.668Z,181.27
2023-03-21T16:19:22.609Z,183.56
2023-03-21T16:20:22.536Z,184.24
2023-03-21T16:21:22.477Z,181.68
2023-03-21T16:22:22.445Z,182.94
2023-03-21T16:23:22.375Z,183.11
2023-03-21T16:24:22.327Z,183.25
2023-03-21T16:25:22.276Z,183.43
2023-03-21T16:26:22.207Z,183.13
2023-03-21T16:27:22.168Z,183.01
2023-03-21T16:28:22.117Z,183.53
2023-03-21T16:29:22.085Z,181.98
2023-03-21T16:30:21.993Z,181.22
2023-03-21T16:31:22.034Z,180.33
2023-03-21T16:32:21.888Z,182.36
2023-03-21T16:33:21.836Z,182.75
2023-03-21T16:34:21.797Z,182.89
2023-03-21T16:35:23.519Z,183.01
2023-03-21T16:36:21.677Z,182.14
2023-03-21T16:37:21.636Z,182.88
2023-03-21T16:38:21.570Z,183.95
2023-03-21T16:39:21.545Z,183.21
2023-03-21T16:40:21.580Z,181.48
2023-03-21T16:41:21.419Z,182.20
2023-03-21T16:42:21.373Z,182.71
2023-03-21T16:43:21.314Z,180.93
2023-03-21T16:44:21.266Z,180.14
2023-03-21T16:45:21.210Z,181.30
2023-03-21T16:46:21.172Z,182.11
2023-03-21T16:47:21.099Z,180.86
2023-03-21T16:48:21.088Z,180.98
2023-03-21T16:49:21.021Z,179.93
2023-03-21T16:50:20.945Z,180.79
2023-03-21T16:51:20.864Z,181.89
2023-03-21T16:52:20.823Z,182.37
2023-03-21T16:53:20.782Z,182.54
2023-03-21T16:54:20.721Z,181.28
2023-03-21T16:55:20.653Z,182.13
2023-03-21T16:56:20.593Z,180.00
2023-03-21T16:57:20.530Z,180.76
2023-03-21T16:58:20.484Z,178.62
2023-03-21T16:59:20.452Z,181.01
2023-03-21T17:00:20.361Z,181.66
2023-03-21T17:01:20.333Z,180.34
2023-03-21T17:02:20.260Z,182.25
2023-03-21T17:03:20.256Z,182.19
2023-03-21T17:04:20.193Z,181.00
2023-03-21T17:05:20.100Z,180.22
2023-03-21T17:06:20.050Z,182.37
2023-03-21T17:07:19.975Z,179.39
2023-03-21T17:08:19.925Z,181.60
2023-03-21T17:09:19.907Z,180.28
2023-03-21T17:10:19.815Z,180.81
2023-03-21T17:11:19.752Z,178.61
2023-03-21T17:12:19.704Z,179.20
2023-03-21T17:13:19.645Z,180.73
2023-03-21T17:14:19.598Z,179.45
2023-03-21T17:15:19.545Z,180.73
2023-03-21T17:16:19.511Z,180.85
2023-03-21T17:17:19.435Z,180.26
2023-03-21T17:18:19.363Z,179.77
2023-03-21T17:19:19.322Z,180.94
2023-03-21T17:20:19.300Z,181.05
2023-03-21T17:21:19.232Z,177.81
2023-03-21T17:22:19.144Z,180.84
2023-03-21T17:23:19.089Z,179.95
2023-03-21T17:24:19.049Z,180.17
2023-03-21T17:57:17.075Z,177.03
2023-03-21T17:58:17.021Z,180.87
2023-03-21T17:59:16.967Z,177.84
2023-03-21T18:00:16.914Z,176.73
2023-03-21T18:01:16.847Z,179.39
2023-03-21T18:02:16.790Z,177.99
2023-03-21T18:03:18.509Z,176.87
2023-03-21T18:04:16.812Z,179.55
2023-03-21T18:05:16.870Z,177.00
2023-03-21T18:06:16.729Z,175.44
2023-03-21T18:07:24.563Z,176.25
2023-03-21T18:08:17.573Z,176.39
2023-03-21T18:09:19.083Z,176.65
2023-03-21T18:10:16.461Z,176.49
2023-03-21T18:11:16.412Z,176.83
2023-03-21T18:12:16.364Z,177.00
2023-03-21T18:13:16.302Z,178.06
2023-03-21T18:14:19.241Z,177.99
2023-03-21T18:15:19.337Z,176.46
2023-03-21T18:16:16.269Z,177.24
2023-03-21T18:17:16.078Z,177.73
2023-03-21T18:18:16.042Z,179.01
2023-03-21T18:19:16.049Z,179.69
2023-03-21T18:20:15.930Z,176.14
2023-03-21T18:21:18.200Z,176.35
2023-03-21T18:22:15.948Z,176.59
2023-03-21T18:23:16.058Z,176.91
2023-03-21T18:24:15.724Z,177.47
2023-03-21T18:25:15.670Z,177.24
2023-03-21T18:26:15.626Z,177.95
2023-03-21T18:27:17.281Z,177.41
2023-03-21T18:28:19.155Z,177.63
2023-03-21T18:30:36.205Z,177.79
2023-03-21T18:31:19.648Z,177.90
2023-03-21T18:32:15.309Z,178.00
2023-03-21T18:33:15.278Z,178.97
2023-03-21T18:34:15.219Z,179.90
2023-03-21T18:35:15.232Z,179.21
2023-03-21T18:36:15.319Z,179.27
2023-03-21T18:37:15.075Z,178.01
2023-03-21T18:38:15.018Z,178.93
2023-03-21T18:39:14.956Z,176.33
2023-03-21T18:40:14.910Z,179.29
2023-03-21T18:41:14.866Z,176.97
2023-03-21T18:42:18.913Z,177.07
2023-03-21T18:43:59.181Z,177.24
2023-03-21T18:44:19.364Z,177.33
2023-03-21T18:45:15.628Z,177.45
2023-03-21T18:46:14.692Z,178.53
2023-03-21T18:47:14.532Z,178.72
2023-03-21T18:48:14.525Z,178.65
2023-03-21T18:49:58.848Z,179.00
2023-03-21T18:50:15.650Z,177.30
2023-03-21T18:51:14.344Z,177.26
2023-03-21T18:52:14.270Z,177.37
2023-03-21T18:53:14.225Z,176.82
2023-03-21T18:54:14.165Z,176.53
2023-03-21T18:55:14.117Z,175.06
2023-03-21T18:56:46.897Z,175.84
2023-03-21T18:58:14.961Z,176.06
2023-03-21T18:59:13.922Z,176.46
2023-03-21T19:00:13.922Z,176.57
2023-03-21T19:01:13.912Z,177.41
2023-03-21T19:02:13.852Z,174.49
2023-03-21T19:03:26.976Z,174.61
2023-03-21T19:04:23.968Z,174.79
2023-03-21T19:05:14.701Z,175.01
2023-03-21T19:06:14.220Z,175.61
2023-03-21T19:07:13.498Z,176.68
2023-03-21T19:08:13.450Z,177.40
2023-03-21T19:09:14.367Z,175.26
2023-03-21T19:10:18.154Z,176.74
2023-03-21T19:11:14.296Z,176.83
2023-03-21T19:12:13.240Z,175.73
2023-03-21T19:13:13.184Z,175.14
2023-03-21T19:15:13.289Z,173.99
2023-03-21T19:16:13.050Z,172.43
2023-03-21T19:18:37.642Z,173.10
2023-03-21T19:19:13.956Z,173.29
2023-03-21T19:20:12.820Z,173.51
2023-03-21T19:21:12.788Z,174.36
2023-03-21T19:22:12.762Z,175.07
2023-03-21T19:23:12.654Z,171.30
2023-03-21T19:24:29.065Z,173.04
2023-03-21T19:25:13.551Z,173.19
2023-03-21T19:26:12.484Z,173.29
2023-03-21T19:27:12.427Z,173.52
2023-03-21T19:28:12.361Z,171.71
2023-03-21T19:29:12.330Z,173.09
2023-03-21T19:30:15.461Z,171.90
2023-03-21T19:31:12.175Z,171.96
2023-03-21T19:32:12.210Z,171.43
2023-03-21T19:33:12.071Z,172.45
2023-03-21T19:34:12.018Z,171.53
2023-03-21T19:35:11.962Z,172.28
2023-03-21T19:36:21.136Z,172.16
2023-03-21T19:37:12.845Z,172.39
2023-03-21T19:38:11.781Z,172.59
2023-03-21T19:39:11.726Z,170.78
2023-03-21T19:40:11.691Z,173.57
2023-03-21T19:41:11.620Z,172.85
2023-03-21T19:42:16.791Z,170.08
2023-03-21T19:43:31.832Z,170.23
2023-03-21T19:44:12.432Z,170.38
2023-03-21T19:45:11.386Z,171.30
2023-03-21T19:46:11.344Z,170.83
2023-03-21T19:47:11.308Z,172.38
2023-03-21T19:48:11.205Z,170.35
2023-03-21T19:49:11.172Z,170.86
2023-03-21T19:51:27.312Z,170.38
2023-03-21T19:52:11.967Z,170.40
2023-03-21T19:53:10.890Z,171.20
2023-03-21T19:54:10.826Z,171.68
2023-03-21T19:55:10.784Z,172.31
2023-03-21T19:56:20.757Z,171.45
2023-03-21T19:57:11.663Z,170.37
2023-03-21T19:58:10.592Z,170.66
2023-03-21T19:59:10.546Z,170.23
2023-03-21T20:00:10.498Z,172.37
2023-03-21T20:01:10.469Z,169.81
2023-03-21T20:02:34.145Z,170.24
2023-03-21T20:03:11.399Z,170.32
2023-03-21T20:04:10.279Z,170.82
2023-03-21T20:05:10.191Z,170.32